Time;durP1;ratioP1;P1;durP2;ratioP2;P2;SDS_P1;SDS_P2;PMS_P1;PMS_P2;Temp;Humidity;BMP_temperature;BMP_pressure;BME280_temperature;BME280_humidity;BME280_pressure;Samples;Min_cycle;Max_cycle;Signal;HPM_P1;HPM_P2
2022/04/23 00:01:09;;;;;;;13.50;12.30;;;;;;;;;;5087017;28;24413;-50
2022/04/23 00:03:34;;;;;;;13.10;11.90;;;;;;;;;;5086723;28;24391;-50
2022/04/23 00:06:00;;;;;;;13.13;11.93;;;;;;;;;;5087019;28;25081;-50
2022/04/23 00:08:25;;;;;;;13.10;11.90;;;;;;;;;;5086876;28;24395;-50
2022/04/23 00:10:50;;;;;;;12.73;11.53;;;;;;;;;;5086522;28;24406;-50
2022/04/23 00:13:15;;;;;;;13.25;12.05;;;;;;;;;;5087004;28;24424;-52
2022/04/23 00:15:40;;;;;;;14.00;12.70;;;;;;;;;;5086590;28;24786;-50
2022/04/23 00:18:07;;;;;;;14.02;12.63;;;;;;;;;;5086445;28;24940;-51
2022/04/23 00:20:33;;;;;;;15.10;13.50;;;;;;;;;;5086816;28;24782;-50
2022/04/23 00:22:59;;;;;;;14.30;12.90;;;;;;;;;;5086401;28;24382;-52
2022/04/23 00:25:24;;;;;;;13.45;12.05;;;;;;;;;;5086780;28;24439;-51
2022/04/23 00:27:49;;;;;;;13.60;12.30;;;;;;;;;;5086234;28;24387;-55
2022/04/23 00:30:15;;;;;;;13.80;12.40;;;;;;;;;;5086542;28;25023;-49
2022/04/23 00:32:40;;;;;;;14.20;12.80;;;;;;;;;;5086510;28;24425;-49
2022/04/23 00:35:06;;;;;;;15.68;14.10;;;;;;;;;;5086484;28;24584;-49
2022/04/23 00:37:31;;;;;;;13.35;12.05;;;;;;;;;;5086457;28;24933;-49
2022/04/23 00:39:57;;;;;;;14.80;13.30;;;;;;;;;;5086534;28;24398;-50
2022/04/23 00:42:22;;;;;;;13.87;12.47;;;;;;;;;;5086746;28;24473;-50
2022/04/23 00:44:47;;;;;;;13.90;12.50;;;;;;;;;;5086777;28;24959;-50
2022/04/23 00:47:12;;;;;;;13.20;11.77;;;;;;;;;;5085669;28;24393;-50
2022/04/23 00:49:37;;;;;;;14.10;12.60;;;;;;;;;;5086430;28;24718;-51
2022/04/23 00:52:03;;;;;;;14.00;12.60;;;;;;;;;;5086612;28;24418;-50
2022/04/23 00:54:28;;;;;;;14.65;13.25;;;;;;;;;;5086391;28;24417;-50
2022/04/23 00:56:53;;;;;;;14.40;13.00;;;;;;;;;;5086354;28;24398;-50
2022/04/23 00:59:18;;;;;;;13.93;12.63;;;;;;;;;;5086683;28;24382;-50
2022/04/23 01:01:44;;;;;;;14.27;12.93;;;;;;;;;;5086143;28;24958;-50
2022/04/23 01:04:09;;;;;;;13.73;12.07;;;;;;;;;;5084936;28;24732;-49
2022/04/23 01:06:35;;;;;;;13.20;11.90;;;;;;;;;;5085965;28;24508;-50
2022/04/23 01:09:01;;;;;;;14.30;12.90;;;;;;;;;;5090219;28;24401;-50
2022/04/23 01:11:27;;;;;;;14.00;12.70;;;;;;;;;;5090043;28;24394;-50
2022/04/23 01:13:52;;;;;;;13.57;12.27;;;;;;;;;;5089703;28;24429;-50
2022/04/23 01:16:19;;;;;;;14.10;12.70;;;;;;;;;;5090247;28;25001;-50
2022/04/23 01:18:44;;;;;;;15.40;13.90;;;;;;;;;;5081364;28;24486;-50
2022/04/23 01:21:10;;;;;;;14.30;13.00;;;;;;;;;;5069878;28;24493;-50
2022/04/23 01:23:35;;;;;;;14.20;12.90;;;;;;;;;;5069414;28;24818;-50
2022/04/23 01:26:03;;;;;;;13.90;12.60;;;;;;;;;;5069933;28;24493;-51
2022/04/23 01:28:28;;;;;;;13.90;12.60;;;;;;;;;;5069086;28;24507;-50
2022/04/23 01:30:53;;;;;;;14.47;12.97;;;;;;;;;;5069240;28;24482;-50
2022/04/23 01:33:19;;;;;;;15.15;13.65;;;;;;;;;;5069123;28;24984;-49
2022/04/23 01:35:44;;;;;;;14.20;12.80;;;;;;;;;;5069092;28;24391;-49
2022/04/23 01:38:10;;;;;;;14.67;13.27;;;;;;;;;;5069405;28;24858;-50
2022/04/23 01:40:35;;;;;;;13.80;12.43;;;;;;;;;;5069522;28;24391;-50
2022/04/23 01:43:00;;;;;;;14.43;12.93;;;;;;;;;;5069536;28;24399;-50
2022/04/23 01:45:25;;;;;;;14.20;12.80;;;;;;;;;;5069635;28;24478;-50
2022/04/23 01:47:50;;;;;;;15.80;14.30;;;;;;;;;;5069163;28;24439;-50
2022/04/23 01:50:16;;;;;;;14.00;12.60;;;;;;;;;;5068830;28;24437;-50
2022/04/23 01:52:41;;;;;;;15.30;13.70;;;;;;;;;;5069050;28;24390;-51
2022/04/23 01:55:06;;;;;;;14.32;13.00;;;;;;;;;;5069077;28;24840;-50
2022/04/23 01:57:32;;;;;;;14.57;13.13;;;;;;;;;;5069241;28;24410;-50
2022/04/23 01:59:57;;;;;;;13.97;12.57;;;;;;;;;;5068673;28;24912;-49
2022/04/23 02:02:22;;;;;;;15.60;14.00;;;;;;;;;;5068844;28;24394;-50
2022/04/23 02:04:47;;;;;;;15.03;13.47;;;;;;;;;;5068773;28;24399;-50
2022/04/23 02:07:12;;;;;;;15.00;13.50;;;;;;;;;;5068433;28;24450;-51
2022/04/23 02:09:37;;;;;;;15.70;14.10;;;;;;;;;;5068559;28;24398;-50
2022/04/23 02:12:03;;;;;;;15.10;13.70;;;;;;;;;;5068830;28;24461;-49
2022/04/23 02:14:28;;;;;;;14.50;13.20;;;;;;;;;;5068780;28;24518;-51
2022/04/23 02:16:53;;;;;;;15.20;13.70;;;;;;;;;;5068339;28;24414;-50
2022/04/23 02:19:18;;;;;;;14.83;13.33;;;;;;;;;;5081866;28;24460;-50
2022/04/23 02:21:44;;;;;;;15.18;13.68;;;;;;;;;;5089061;28;24391;-50
2022/04/23 02:24:09;;;;;;;15.43;13.82;;;;;;;;;;5088845;28;24760;-50
2022/04/23 02:26:35;;;;;;;15.18;13.68;;;;;;;;;;5088561;28;24406;-51
2022/04/23 02:29:00;;;;;;;15.53;14.03;;;;;;;;;;5088248;28;24997;-50
2022/04/23 02:31:25;;;;;;;15.80;14.10;;;;;;;;;;5088519;28;24405;-50
2022/04/23 02:33:51;;;;;;;15.25;13.65;;;;;;;;;;5088264;28;24977;-53
2022/04/23 02:36:16;;;;;;;14.65;13.25;;;;;;;;;;5088754;28;25025;-50
2022/04/23 02:38:41;;;;;;;15.95;14.25;;;;;;;;;;5088515;28;24493;-51
2022/04/23 02:41:06;;;;;;;15.70;14.10;;;;;;;;;;5088872;28;24398;-51
2022/04/23 02:43:35;;;;;;;15.70;14.10;;;;;;;;;;5088630;28;24398;-50
2022/04/23 02:46:01;;;;;;;15.27;13.77;;;;;;;;;;5088256;28;24413;-50
2022/04/23 02:48:26;;;;;;;15.43;13.93;;;;;;;;;;5088410;28;24401;-50
2022/04/23 02:50:51;;;;;;;16.37;14.67;;;;;;;;;;5087967;28;25060;-50
2022/04/23 02:53:16;;;;;;;15.23;13.73;;;;;;;;;;5088129;28;24447;-49
2022/04/23 02:55:41;;;;;;;15.43;13.93;;;;;;;;;;5088366;28;24436;-50
2022/04/23 02:58:08;;;;;;;14.95;13.55;;;;;;;;;;5087803;28;24402;-50
2022/04/23 03:00:33;;;;;;;14.80;13.30;;;;;;;;;;5088540;28;24417;-49
2022/04/23 03:02:59;;;;;;;15.00;13.50;;;;;;;;;;5087839;28;24442;-53
2022/04/23 03:05:26;;;;;;;16.07;14.40;;;;;;;;;;5088168;28;24962;-50
2022/04/23 03:07:51;;;;;;;16.83;15.13;;;;;;;;;;5088019;28;24401;-50
2022/04/23 03:10:16;;;;;;;16.38;14.77;;;;;;;;;;5087899;28;24493;-50
2022/04/23 03:12:42;;;;;;;16.17;14.48;;;;;;;;;;5088071;28;24405;-50
2022/04/23 03:15:08;;;;;;;17.10;15.30;;;;;;;;;;5087943;28;24859;-50
2022/04/23 03:17:33;;;;;;;16.60;14.90;;;;;;;;;;5087709;28;24390;-49
2022/04/23 03:19:59;;;;;;;15.82;14.15;;;;;;;;;;5067894;28;24499;-50
2022/04/23 03:22:24;;;;;;;15.57;13.97;;;;;;;;;;5067283;28;24448;-50
2022/04/23 03:24:49;;;;;;;15.60;14.00;;;;;;;;;;5067064;28;24400;-51
2022/04/23 03:27:15;;;;;;;15.80;14.13;;;;;;;;;;5067508;28;24506;-50
2022/04/23 03:29:40;;;;;;;15.88;14.10;;;;;;;;;;5066452;28;24810;-50
2022/04/23 03:32:05;;;;;;;16.60;14.90;;;;;;;;;;5067080;28;24601;-50
2022/04/23 03:34:31;;;;;;;15.18;13.57;;;;;;;;;;5066997;28;24426;-50
2022/04/23 03:36:56;;;;;;;15.40;13.80;;;;;;;;;;5066870;28;24414;-49
2022/04/23 03:39:21;;;;;;;15.55;13.95;;;;;;;;;;5066854;28;24448;-49
2022/04/23 03:41:46;;;;;;;16.26;14.58;;;;;;;;;;5067188;28;24928;-49
2022/04/23 03:44:12;;;;;;;15.13;13.73;;;;;;;;;;5067066;28;24398;-49
2022/04/23 03:46:37;;;;;;;15.80;14.10;;;;;;;;;;5067107;28;24742;-49
2022/04/23 03:49:02;;;;;;;15.65;14.00;;;;;;;;;;5066016;28;24758;-50
2022/04/23 03:51:27;;;;;;;16.20;14.50;;;;;;;;;;5066641;28;24403;-50
2022/04/23 03:53:52;;;;;;;15.50;13.43;;;;;;;;;;5066508;28;24418;-50
2022/04/23 03:56:18;;;;;;;15.97;14.27;;;;;;;;;;5066594;28;24782;-49
2022/04/23 03:58:43;;;;;;;15.70;14.17;;;;;;;;;;5066763;28;24375;-49
2022/04/23 04:01:09;;;;;;;15.18;13.48;;;;;;;;;;5067121;28;24395;-50
2022/04/23 04:03:34;;;;;;;15.27;13.77;;;;;;;;;;5067072;28;25010;-50
2022/04/23 04:06:00;;;;;;;15.50;13.87;;;;;;;;;;5066539;28;24401;-50
2022/04/23 04:08:25;;;;;;;16.60;14.83;;;;;;;;;;5066657;28;24391;-50
2022/04/23 04:10:50;;;;;;;15.50;13.90;;;;;;;;;;5066695;28;24980;-50
2022/04/23 04:13:15;;;;;;;15.30;13.80;;;;;;;;;;5066562;28;25145;-49
2022/04/23 04:15:41;;;;;;;15.40;13.80;;;;;;;;;;5066554;28;24385;-50
2022/04/23 04:18:06;;;;;;;16.00;14.40;;;;;;;;;;5069714;28;24493;-50
2022/04/23 04:20:32;;;;;;;15.10;13.50;;;;;;;;;;5086781;28;24474;-50
2022/04/23 04:22:57;;;;;;;15.57;14.03;;;;;;;;;;5086446;28;24440;-49
2022/04/23 04:25:22;;;;;;;16.40;14.50;;;;;;;;;;5086794;28;24883;-49
2022/04/23 04:27:47;;;;;;;16.55;14.60;;;;;;;;;;5086658;28;24569;-49
2022/04/23 04:30:12;;;;;;;16.97;15.17;;;;;;;;;;5086292;28;24414;-49
2022/04/23 04:32:39;;;;;;;15.00;13.33;;;;;;;;;;5086562;28;24396;-49
2022/04/23 04:35:04;;;;;;;15.15;13.65;;;;;;;;;;5086350;28;24940;-49
2022/04/23 04:37:29;;;;;;;15.70;14.17;;;;;;;;;;5086721;28;24406;-49
2022/04/23 04:39:55;;;;;;;16.67;15.00;;;;;;;;;;5086233;28;24386;-50
2022/04/23 04:42:20;;;;;;;14.85;13.45;;;;;;;;;;5089770;28;24450;-49
2022/04/23 04:44:45;;;;;;;15.40;13.83;;;;;;;;;;5090894;28;24868;-49
2022/04/23 04:47:11;;;;;;;14.82;13.40;;;;;;;;;;5090396;28;24402;-55
2022/04/23 04:49:36;;;;;;;15.27;13.67;;;;;;;;;;5090395;28;24413;-50
2022/04/23 04:52:02;;;;;;;15.40;13.80;;;;;;;;;;5090635;28;24545;-49
2022/04/23 04:54:27;;;;;;;15.05;13.60;;;;;;;;;;5090705;28;24414;-50
2022/04/23 04:56:53;;;;;;;13.98;12.68;;;;;;;;;;5090481;28;24493;-49
2022/04/23 04:59:20;;;;;;;13.85;12.45;;;;;;;;;;5089719;28;24402;-50
2022/04/23 05:01:45;;;;;;;14.38;12.98;;;;;;;;;;5090728;28;24390;-49
2022/04/23 05:04:11;;;;;;;13.97;12.67;;;;;;;;;;5090300;28;24432;-50
2022/04/23 05:06:36;;;;;;;15.93;14.43;;;;;;;;;;5090366;28;24386;-50
2022/04/23 05:09:02;;;;;;;15.57;14.13;;;;;;;;;;5090160;28;24462;-50
2022/04/23 05:11:27;;;;;;;16.20;14.60;;;;;;;;;;5090120;28;24414;-51
2022/04/23 05:13:52;;;;;;;16.58;14.95;;;;;;;;;;5090030;28;24764;-50
2022/04/23 05:16:17;;;;;;;16.60;15.00;;;;;;;;;;5089896;28;24942;-50
2022/04/23 05:18:43;;;;;;;16.73;15.02;;;;;;;;;;5073833;28;24398;-50
2022/04/23 05:21:08;;;;;;;16.20;14.60;;;;;;;;;;5069504;28;24391;-50
2022/04/23 05:23:33;;;;;;;16.00;14.50;;;;;;;;;;5069461;28;24480;-49
2022/04/23 05:25:58;;;;;;;16.20;14.60;;;;;;;;;;5069535;28;24399;-50
2022/04/23 05:28:23;;;;;;;16.35;14.85;;;;;;;;;;5069127;28;24446;-50
2022/04/23 05:30:49;;;;;;;16.87;15.37;;;;;;;;;;5069600;28;24968;-50
2022/04/23 05:33:14;;;;;;;17.47;15.87;;;;;;;;;;5069119;28;24426;-49
2022/04/23 05:35:39;;;;;;;16.88;15.30;;;;;;;;;;5069408;28;24417;-50
2022/04/23 05:38:04;;;;;;;17.80;16.23;;;;;;;;;;5069185;28;24393;-50
2022/04/23 05:40:30;;;;;;;17.67;16.07;;;;;;;;;;5068655;28;24491;-50
2022/04/23 05:42:58;;;;;;;18.57;16.97;;;;;;;;;;5069346;28;24440;-51
2022/04/23 05:45:23;;;;;;;16.80;15.30;;;;;;;;;;5069145;28;24925;-50
2022/04/23 05:47:48;;;;;;;16.73;15.13;;;;;;;;;;5069254;28;24648;-50
2022/04/23 05:50:13;;;;;;;17.30;15.60;;;;;;;;;;5068747;28;25041;-49
2022/04/23 05:52:39;;;;;;;18.00;16.23;;;;;;;;;;5068132;28;24401;-49
2022/04/23 05:55:05;;;;;;;18.20;16.60;;;;;;;;;;5069064;28;24418;-50
2022/04/23 05:57:33;;;;;;;17.40;15.80;;;;;;;;;;5069059;28;25030;-49
2022/04/23 05:59:58;;;;;;;16.70;15.10;;;;;;;;;;5068599;28;24406;-50
2022/04/23 06:02:23;;;;;;;16.00;14.40;;;;;;;;;;5068818;28;24410;-49
2022/04/23 06:04:49;;;;;;;15.75;14.35;;;;;;;;;;5068644;28;24410;-50
2022/04/23 06:07:15;;;;;;;15.50;14.00;;;;;;;;;;5068786;28;24961;-50
2022/04/23 06:09:40;;;;;;;16.97;15.40;;;;;;;;;;5068636;28;24495;-50
2022/04/23 06:12:05;;;;;;;15.53;14.13;;;;;;;;;;5068600;28;24397;-49
2022/04/23 06:14:30;;;;;;;17.50;15.80;;;;;;;;;;5068494;28;24410;-50
2022/04/23 06:16:56;;;;;;;15.50;14.20;;;;;;;;;;5069035;28;24533;-49
2022/04/23 06:19:21;;;;;;;15.48;14.07;;;;;;;;;;5087966;28;24398;-50
2022/04/23 06:21:46;;;;;;;14.50;13.20;;;;;;;;;;5088892;28;24930;-50
2022/04/23 06:24:11;;;;;;;14.00;12.75;;;;;;;;;;5088657;28;24397;-49
2022/04/23 06:26:37;;;;;;;14.95;13.65;;;;;;;;;;5088728;28;24387;-49
2022/04/23 06:29:02;;;;;;;13.50;12.30;;;;;;;;;;5088187;28;24836;-49
2022/04/23 06:31:28;;;;;;;13.57;12.27;;;;;;;;;;5088777;28;24394;-50
2022/04/23 06:33:53;;;;;;;13.82;12.63;;;;;;;;;;5088475;28;24402;-50
2022/04/23 06:36:18;;;;;;;13.30;12.10;;;;;;;;;;5088205;28;24942;-50
2022/04/23 06:38:43;;;;;;;12.30;11.20;;;;;;;;;;5088247;28;24460;-49
2022/04/23 06:41:08;;;;;;;13.55;12.25;;;;;;;;;;5088464;28;24383;-50
2022/04/23 06:43:34;;;;;;;14.13;12.82;;;;;;;;;;5088516;28;24557;-49
2022/04/23 06:45:59;;;;;;;13.35;12.07;;;;;;;;;;5088532;28;24412;-50
2022/04/23 06:48:25;;;;;;;13.40;12.20;;;;;;;;;;5088172;28;24749;-51
2022/04/23 06:50:50;;;;;;;12.60;11.50;;;;;;;;;;5087935;28;24405;-50
2022/04/23 06:53:15;;;;;;;12.63;11.45;;;;;;;;;;5087789;28;24917;-53
2022/04/23 06:55:40;;;;;;;11.93;10.93;;;;;;;;;;5088290;28;24918;-50
2022/04/23 06:58:05;;;;;;;12.17;11.07;;;;;;;;;;5088124;28;24383;-49
2022/04/23 07:00:31;;;;;;;12.60;11.40;;;;;;;;;;5087628;28;24490;-49
2022/04/23 07:02:56;;;;;;;11.68;10.65;;;;;;;;;;5087252;28;24407;-49
2022/04/23 07:05:21;;;;;;;11.10;10.10;;;;;;;;;;5086903;28;24927;-49
2022/04/23 07:07:53;;;;;;;10.73;9.82;;;;;;;;;;5087848;28;24477;-50
2022/04/23 07:10:18;;;;;;;10.65;9.75;;;;;;;;;;5087448;28;24964;-49
2022/04/23 07:12:43;;;;;;;12.23;11.13;;;;;;;;;;5087717;28;24394;-49
2022/04/23 07:15:08;;;;;;;10.25;9.25;;;;;;;;;;5087547;28;24760;-50
2022/04/23 07:17:33;;;;;;;9.60;8.80;;;;;;;;;;5081933;28;24460;-50
2022/04/23 07:19:58;;;;;;;8.90;8.10;;;;;;;;;;5064700;28;24525;-50
2022/04/23 07:22:24;;;;;;;9.40;8.40;;;;;;;;;;5067185;28;24399;-50
2022/04/23 07:24:50;;;;;;;8.50;7.80;;;;;;;;;;5067362;28;24576;-50
2022/04/23 07:27:15;;;;;;;8.90;8.02;;;;;;;;;;5066858;28;24426;-50
2022/04/23 07:29:40;;;;;;;7.47;6.80;;;;;;;;;;5066933;28;25203;-50
2022/04/23 07:32:06;;;;;;;7.67;6.97;;;;;;;;;;5067248;28;25284;-51
2022/04/23 07:37:31;;;;;;;7.00;6.40;;;;;;;;;;5066913;28;25119;-50
2022/04/23 07:39:57;;;;;;;7.70;7.10;;;;;;;;;;5066678;28;24414;-50
2022/04/23 07:42:23;;;;;;;7.50;6.90;;;;;;;;;;5066521;28;24391;-50
2022/04/23 07:44:48;;;;;;;6.80;6.30;;;;;;;;;;5066910;28;24702;-50
2022/04/23 07:47:13;;;;;;;7.15;6.57;;;;;;;;;;5066244;28;24391;-50
2022/04/23 07:49:38;;;;;;;6.95;6.32;;;;;;;;;;5066853;28;24391;-50
2022/04/23 07:52:04;;;;;;;6.10;5.60;;;;;;;;;;5066722;28;24420;-50
2022/04/23 07:54:29;;;;;;;6.07;5.57;;;;;;;;;;5066599;28;25006;-50
2022/04/23 07:56:54;;;;;;;4.50;4.20;;;;;;;;;;5066946;28;24482;-50
2022/04/23 07:59:20;;;;;;;5.03;4.53;;;;;;;;;;5066131;28;24884;-50
2022/04/23 08:01:46;;;;;;;5.00;4.60;;;;;;;;;;5066886;28;24482;-49
2022/04/23 08:04:11;;;;;;;5.63;5.13;;;;;;;;;;5066259;28;24910;-50
2022/04/23 08:06:36;;;;;;;3.80;3.50;;;;;;;;;;5066771;28;24820;-50
2022/04/23 08:09:01;;;;;;;4.20;3.80;;;;;;;;;;5066422;28;25087;-50
2022/04/23 08:11:26;;;;;;;4.30;3.90;;;;;;;;;;5066275;28;24937;-51
2022/04/23 08:13:52;;;;;;;4.40;4.10;;;;;;;;;;5066051;28;24517;-51
2022/04/23 08:16:17;;;;;;;4.40;4.10;;;;;;;;;;5066237;28;24509;-50
2022/04/23 08:18:42;;;;;;;4.17;3.87;;;;;;;;;;5081478;28;24421;-52
2022/04/23 08:21:07;;;;;;;4.10;3.80;;;;;;;;;;5086062;28;24924;-51
2022/04/23 08:23:33;;;;;;;4.07;3.75;;;;;;;;;;5086107;28;24538;-51
2022/04/23 08:26:00;;;;;;;4.70;4.40;;;;;;;;;;5086549;28;24485;-51
2022/04/23 08:31:09;;;;;;;4.53;4.20;;;;;;;;;;5086511;28;24537;-51
2022/04/23 08:36:18;;;;;;;4.00;3.70;;;;;;;;;;5086508;28;24918;-51
2022/04/23 08:38:43;;;;;;;4.20;3.90;;;;;;;;;;5084847;28;24406;-52
2022/04/23 08:41:08;;;;;;;4.10;3.80;;;;;;;;;;5085566;28;24740;-51
2022/04/23 08:43:33;;;;;;;4.80;4.10;;;;;;;;;;5086366;28;24401;-51
2022/04/23 08:46:01;;;;;;;3.83;3.53;;;;;;;;;;5086570;28;24409;-50
2022/04/23 08:48:28;;;;;;;4.05;3.75;;;;;;;;;;5086194;28;24402;-51
2022/04/23 08:50:58;;;;;;;4.20;3.90;;;;;;;;;;5085890;28;25017;-50
2022/04/23 08:53:26;;;;;;;4.30;4.00;;;;;;;;;;5085891;28;24970;-49
2022/04/23 08:55:52;;;;;;;4.40;4.10;;;;;;;;;;5086208;28;24756;-49
2022/04/23 08:58:17;;;;;;;4.40;4.00;;;;;;;;;;5086143;28;24983;-49
2022/04/23 09:00:42;;;;;;;4.30;4.00;;;;;;;;;;5086256;28;24488;-50
2022/04/23 09:03:14;;;;;;;4.28;3.97;;;;;;;;;;5086070;28;25293;-49
2022/04/23 09:05:40;;;;;;;4.28;3.88;;;;;;;;;;5086126;28;24744;-50
2022/04/23 09:08:07;;;;;;;4.60;4.20;;;;;;;;;;5086233;28;24401;-50
2022/04/23 09:10:45;;;;;;;4.60;4.20;;;;;;;;;;5085235;28;24420;-50
2022/04/23 09:13:11;;;;;;;4.10;3.80;;;;;;;;;;5086041;28;24412;-50
2022/04/23 09:24:10;;;;;;;4.03;3.47;;;;;;;;;;5065774;28;24425;-50
2022/04/23 09:26:36;;;;;;;4.30;3.90;;;;;;;;;;5065646;28;25098;-51
2022/04/23 09:29:11;;;;;;;4.00;3.70;;;;;;;;;;5069158;28;24427;-50
2022/04/23 09:31:36;;;;;;;4.10;3.70;;;;;;;;;;5068972;28;24417;-50
2022/04/23 09:34:13;;;;;;;3.92;3.63;;;;;;;;;;5069163;28;24956;-50
2022/04/23 09:36:48;;;;;;;3.97;3.67;;;;;;;;;;5068913;28;24826;-50
2022/04/23 09:39:13;;;;;;;4.50;4.20;;;;;;;;;;5069368;28;24527;-51
2022/04/23 09:41:39;;;;;;;4.80;4.40;;;;;;;;;;5068874;28;24383;-51
2022/04/23 09:44:09;;;;;;;4.68;4.28;;;;;;;;;;5069225;28;24785;-50
2022/04/23 09:46:44;;;;;;;4.13;3.80;;;;;;;;;;5069010;28;24390;-50
2022/04/23 09:49:09;;;;;;;4.18;3.78;;;;;;;;;;5068980;28;24904;-50
2022/04/23 09:51:34;;;;;;;4.90;4.40;;;;;;;;;;5068642;28;24399;-50
2022/04/23 09:54:00;;;;;;;4.40;4.00;;;;;;;;;;5068748;28;24487;-50
2022/04/23 09:56:25;;;;;;;4.80;4.50;;;;;;;;;;5068510;28;24730;-50
2022/04/23 09:58:51;;;;;;;4.37;3.97;;;;;;;;;;5069132;28;24441;-50
2022/04/23 10:01:20;;;;;;;3.93;3.63;;;;;;;;;;5068372;28;24439;-50
2022/04/23 10:03:49;;;;;;;3.83;3.53;;;;;;;;;;5068648;28;24499;-50
2022/04/23 10:06:16;;;;;;;4.20;3.90;;;;;;;;;;5068520;28;24971;-50
2022/04/23 10:08:43;;;;;;;4.38;4.07;;;;;;;;;;5068450;28;24398;-50
2022/04/23 10:11:27;;;;;;;4.22;3.90;;;;;;;;;;5068449;28;24425;-50
2022/04/23 10:13:54;;;;;;;4.60;4.30;;;;;;;;;;5068482;28;24426;-50
2022/04/23 10:16:19;;;;;;;4.50;4.10;;;;;;;;;;5068720;28;24494;-50
2022/04/23 10:18:45;;;;;;;4.57;4.17;;;;;;;;;;5083829;28;24536;-50
2022/04/23 10:21:14;;;;;;;4.10;3.80;;;;;;;;;;5088736;28;24394;-50
2022/04/23 10:24:01;;;;;;;4.55;4.15;;;;;;;;;;5088196;28;24775;-50
2022/04/23 10:26:26;;;;;;;4.25;3.90;;;;;;;;;;5088314;28;24394;-50
2022/04/23 10:28:51;;;;;;;3.95;3.65;;;;;;;;;;5088531;28;24525;-50
2022/04/23 10:31:17;;;;;;;4.53;4.23;;;;;;;;;;5088336;28;24433;-50
2022/04/23 10:33:43;;;;;;;4.00;3.70;;;;;;;;;;5088460;28;24425;-50
2022/04/23 10:36:08;;;;;;;5.05;4.10;;;;;;;;;;5088673;28;24394;-50
2022/04/23 10:38:34;;;;;;;4.20;3.90;;;;;;;;;;5088115;28;24432;-50
2022/04/23 10:40:59;;;;;;;5.30;3.80;;;;;;;;;;5088012;28;24748;-50
2022/04/23 10:43:25;;;;;;;4.40;4.10;;;;;;;;;;5088301;28;24395;-49
2022/04/23 10:45:51;;;;;;;4.50;4.10;;;;;;;;;;5088210;28;24397;-49
2022/04/23 10:48:26;;;;;;;5.27;4.77;;;;;;;;;;5088211;28;24387;-50
2022/04/23 10:51:02;;;;;;;4.80;4.40;;;;;;;;;;5087995;28;24386;-50
2022/04/23 10:53:28;;;;;;;5.00;4.60;;;;;;;;;;5087709;28;24417;-50
2022/04/23 10:56:12;;;;;;;4.47;4.10;;;;;;;;;;5088389;28;24429;-49
2022/04/23 10:58:41;;;;;;;4.25;3.88;;;;;;;;;;5087659;28;24880;-49
2022/04/23 11:01:22;;;;;;;3.95;3.60;;;;;;;;;;5087889;28;24924;-50
2022/04/23 11:04:06;;;;;;;3.90;3.60;;;;;;;;;;5087655;28;24409;-49
2022/04/23 11:12:18;;;;;;;3.90;3.60;;;;;;;;;;5087552;28;24489;-50
2022/04/23 11:14:44;;;;;;;3.95;3.65;;;;;;;;;;5087636;28;24441;-50
2022/04/23 11:17:13;;;;;;;3.90;3.60;;;;;;;;;;5085302;28;24390;-50
2022/04/23 11:19:39;;;;;;;4.32;4.00;;;;;;;;;;5066791;28;24402;-50
2022/04/23 11:22:04;;;;;;;4.35;3.95;;;;;;;;;;5067300;28;24390;-50
2022/04/23 11:24:30;;;;;;;5.10;4.70;;;;;;;;;;5067259;28;24820;-50
2022/04/23 11:26:56;;;;;;;4.60;4.30;;;;;;;;;;5067058;28;24438;-50
2022/04/23 11:29:21;;;;;;;4.90;4.50;;;;;;;;;;5067295;28;24991;-49
2022/04/23 11:31:50;;;;;;;4.47;4.18;;;;;;;;;;5066815;28;25171;-50
2022/04/23 11:34:15;;;;;;;4.70;4.40;;;;;;;;;;5066879;28;24430;-50
2022/04/23 11:36:42;;;;;;;5.30;4.90;;;;;;;;;;5065264;28;24441;-50
2022/04/23 11:39:08;;;;;;;5.47;4.80;;;;;;;;;;5067231;28;24501;-49
2022/04/23 11:41:35;;;;;;;5.60;5.10;;;;;;;;;;5066295;28;24481;-49
2022/04/23 11:44:15;;;;;;;5.45;5.05;;;;;;;;;;5066974;28;24432;-49
2022/04/23 11:46:41;;;;;;;6.28;5.78;;;;;;;;;;5066655;28;25165;-49
2022/04/23 11:49:07;;;;;;;5.00;4.60;;;;;;;;;;5067072;28;24410;-51
2022/04/23 11:51:32;;;;;;;5.38;4.88;;;;;;;;;;5066237;28;24382;-49
2022/04/23 11:53:58;;;;;;;5.87;5.30;;;;;;;;;;5066868;28;24612;-49
2022/04/23 11:56:28;;;;;;;5.50;5.10;;;;;;;;;;5067037;28;24436;-50
2022/04/23 11:58:57;;;;;;;5.15;4.75;;;;;;;;;;5066672;28;24478;-50
2022/04/23 12:01:23;;;;;;;5.30;4.90;;;;;;;;;;5066352;28;24389;-50
2022/04/23 12:03:49;;;;;;;5.10;4.70;;;;;;;;;;5066662;28;24383;-50
2022/04/23 12:06:14;;;;;;;4.93;4.53;;;;;;;;;;5066679;28;24397;-50
2022/04/23 12:08:40;;;;;;;5.43;5.03;;;;;;;;;;5066402;28;24742;-50
2022/04/23 12:11:18;;;;;;;5.10;4.70;;;;;;;;;;5066644;28;24435;-50
2022/04/23 12:13:43;;;;;;;5.50;5.10;;;;;;;;;;5066228;28;24415;-50
2022/04/23 12:16:08;;;;;;;5.50;4.90;;;;;;;;;;5066428;28;24801;-50
2022/04/23 12:18:33;;;;;;;5.30;4.90;;;;;;;;;;5080742;28;24395;-49
2022/04/23 12:21:05;;;;;;;5.70;5.30;;;;;;;;;;5086642;28;24409;-50
2022/04/23 12:23:40;;;;;;;5.28;4.80;;;;;;;;;;5086639;28;24389;-49
2022/04/23 12:26:09;;;;;;;5.00;4.60;;;;;;;;;;5086871;28;24413;-50
2022/04/23 12:42:26;;;;;;;5.20;4.80;;;;;;;;;;5086346;28;24427;-49
2022/04/23 12:44:53;;;;;;;5.10;4.60;;;;;;;;;;5086265;28;24485;-49
2022/04/23 12:47:33;;;;;;;5.53;5.10;;;;;;;;;;5086304;28;24814;-49
2022/04/23 12:50:00;;;;;;;5.38;4.97;;;;;;;;;;5086585;28;24441;-49
2022/04/23 12:52:38;;;;;;;4.72;4.43;;;;;;;;;;5086467;28;24444;-49
2022/04/23 12:55:22;;;;;;;5.30;4.90;;;;;;;;;;5086274;28;24414;-49
2022/04/23 12:57:48;;;;;;;6.40;5.90;;;;;;;;;;5086209;28;24397;-49
2022/04/23 13:00:16;;;;;;;5.60;5.10;;;;;;;;;;5086480;28;24443;-49
2022/04/23 13:02:43;;;;;;;5.90;5.30;;;;;;;;;;5085743;28;24386;-49
2022/04/23 13:05:08;;;;;;;5.95;5.45;;;;;;;;;;5090460;28;24433;-49
2022/04/23 13:10:17;;;;;;;5.40;5.00;;;;;;;;;;5090371;28;24523;-49
2022/04/23 13:12:43;;;;;;;5.50;5.00;;;;;;;;;;5089805;28;24390;-49
2022/04/23 13:15:08;;;;;;;5.73;4.70;;;;;;;;;;5090245;28;24418;-53
2022/04/23 13:17:34;;;;;;;6.40;5.90;;;;;;;;;;5084165;28;24758;-49
2022/04/23 13:20:01;;;;;;;5.63;5.20;;;;;;;;;;5069598;28;24448;-49
2022/04/23 13:22:27;;;;;;;6.10;5.50;;;;;;;;;;5069082;28;24398;-48
2022/04/23 13:24:53;;;;;;;5.83;5.43;;;;;;;;;;5069752;28;24394;-48
2022/04/23 13:27:18;;;;;;;5.60;5.18;;;;;;;;;;5069602;28;24798;-49
2022/04/23 13:29:43;;;;;;;5.78;5.38;;;;;;;;;;5069426;28;24468;-49
2022/04/23 13:32:08;;;;;;;5.40;5.00;;;;;;;;;;5069487;28;24490;-48
2022/04/23 13:34:33;;;;;;;5.40;4.90;;;;;;;;;;5069699;28;24418;-49
2022/04/23 13:36:59;;;;;;;5.37;4.97;;;;;;;;;;5069234;28;24402;-48
2022/04/23 13:39:24;;;;;;;5.70;5.30;;;;;;;;;;5069259;28;24478;-49
2022/04/23 13:41:50;;;;;;;5.70;5.20;;;;;;;;;;5069218;28;24485;-49
2022/04/23 13:44:15;;;;;;;5.30;4.90;;;;;;;;;;5069246;28;24390;-49
2022/04/23 13:46:40;;;;;;;4.90;4.50;;;;;;;;;;5069375;28;24413;-49
2022/04/23 13:49:05;;;;;;;5.40;4.90;;;;;;;;;;5069034;28;24417;-49
2022/04/23 13:51:31;;;;;;;4.90;4.60;;;;;;;;;;5069188;28;24980;-49
2022/04/23 13:53:56;;;;;;;5.10;4.70;;;;;;;;;;5066970;28;24985;-48
2022/04/23 13:56:21;;;;;;;5.25;4.85;;;;;;;;;;5069645;28;24383;-50
2022/04/23 13:58:47;;;;;;;4.70;4.40;;;;;;;;;;5068971;28;24375;-49
2022/04/23 14:01:12;;;;;;;4.70;4.40;;;;;;;;;;5069023;28;24444;-49
2022/04/23 14:11:50;;;;;;;5.72;5.32;;;;;;;;;;5068985;28;24430;-50
2022/04/23 14:14:15;;;;;;;5.22;4.80;;;;;;;;;;5067690;28;24486;-50
2022/04/23 14:16:43;;;;;;;4.90;4.50;;;;;;;;;;5068964;28;24409;-50
2022/04/23 14:19:08;;;;;;;6.97;6.38;;;;;;;;;;5087726;28;24402;-50
2022/04/23 14:21:33;;;;;;;6.50;6.00;;;;;;;;;;5089621;28;24483;-49
2022/04/23 14:23:58;;;;;;;6.20;5.70;;;;;;;;;;5088372;28;25013;-50
2022/04/23 14:26:23;;;;;;;5.60;5.10;;;;;;;;;;5088793;28;24714;-50
2022/04/23 14:28:50;;;;;;;5.10;4.80;;;;;;;;;;5088600;28;24935;-50
2022/04/23 14:31:15;;;;;;;6.80;5.30;;;;;;;;;;5088630;28;24481;-50
2022/04/23 14:33:40;;;;;;;5.57;5.17;;;;;;;;;;5087353;28;24485;-49
2022/04/23 14:36:05;;;;;;;5.93;5.43;;;;;;;;;;5087951;28;24398;-50
2022/04/23 14:38:30;;;;;;;5.53;5.03;;;;;;;;;;5088247;28;25013;-50
2022/04/23 14:40:56;;;;;;;5.50;5.10;;;;;;;;;;5088561;28;24390;-49
2022/04/23 14:43:21;;;;;;;5.77;5.30;;;;;;;;;;5088610;28;24383;-50
2022/04/23 14:45:46;;;;;;;6.40;5.90;;;;;;;;;;5088259;28;24419;-50
2022/04/23 14:48:11;;;;;;;6.10;5.60;;;;;;;;;;5088656;28;24409;-50
2022/04/23 14:53:21;;;;;;;6.30;5.80;;;;;;;;;;5088176;28;24417;-49
2022/04/23 14:55:46;;;;;;;6.30;5.70;;;;;;;;;;5088432;28;25146;-50
2022/04/23 14:58:12;;;;;;;6.20;5.77;;;;;;;;;;5088362;28;24425;-49
2022/04/23 15:00:37;;;;;;;6.40;5.90;;;;;;;;;;5088399;28;24397;-50
2022/04/23 15:03:02;;;;;;;5.90;5.50;;;;;;;;;;5092001;28;24420;-50
2022/04/23 15:05:28;;;;;;;6.90;6.40;;;;;;;;;;5088142;28;24505;-49
2022/04/23 15:07:53;;;;;;;6.20;5.80;;;;;;;;;;5085898;28;24435;-50
2022/04/23 15:10:19;;;;;;;6.70;6.10;;;;;;;;;;5087269;28;25018;-49
2022/04/23 15:12:45;;;;;;;6.75;6.25;;;;;;;;;;5087120;28;24430;-50
2022/04/23 15:15:10;;;;;;;6.70;6.20;;;;;;;;;;5075471;28;24460;-49